sensor_id;sensor_type;location;lat;lon;timestamp;P1;durP1;ratioP1;P2;durP2;ratioP2
52798;SDS011;38667;42.872;74.622;2023-05-10T00:01:00;38.42;;;12.30;;
52798;SDS011;38667;42.872;74.622;2023-05-10T00:03:26;35.60;;;11.73;;
52798;SDS011;38667;42.872;74.622;2023-05-10T00:05:52;26.27;;;9.00;;
52798;SDS011;38667;42.872;74.622;2023-05-10T00:08:19;19.85;;;7.22;;
52798;SDS011;38667;42.872;74.622;2023-05-10T00:10:45;21.88;;;7.50;;
52798;SDS011;38667;42.872;74.622;2023-05-10T00:13:13;30.05;;;8.60;;
52798;SDS011;38667;42.872;74.622;2023-05-10T00:15:39;34.03;;;9.57;;
52798;SDS011;38667;42.872;74.622;2023-05-10T00:18:06;30.02;;;10.40;;
52798;SDS011;38667;42.872;74.622;2023-05-10T00:20:32;23.80;;;9.45;;
52798;SDS011;38667;42.872;74.622;2023-05-10T00:22:58;24.92;;;7.93;;
52798;SDS011;38667;42.872;74.622;2023-05-10T00:25:25;30.73;;;7.65;;
52798;SDS011;38667;42.872;74.622;2023-05-10T00:27:51;20.55;;;6.80;;
52798;SDS011;38667;42.872;74.622;2023-05-10T00:30:19;36.85;;;9.25;;
52798;SDS011;38667;42.872;74.622;2023-05-10T00:32:45;31.05;;;8.15;;
52798;SDS011;38667;42.872;74.622;2023-05-10T00:35:12;33.45;;;7.60;;
52798;SDS011;38667;42.872;74.622;2023-05-10T00:37:38;30.85;;;8.27;;
52798;SDS011;38667;42.872;74.622;2023-05-10T00:40:05;34.83;;;8.25;;
52798;SDS011;38667;42.872;74.622;2023-05-10T00:42:32;23.50;;;7.03;;
52798;SDS011;38667;42.872;74.622;2023-05-10T00:44:58;27.58;;;8.63;;
52798;SDS011;38667;42.872;74.622;2023-05-10T00:47:26;23.88;;;7.85;;
52798;SDS011;38667;42.872;74.622;2023-05-10T00:49:53;20.70;;;7.22;;
52798;SDS011;38667;42.872;74.622;2023-05-10T00:52:19;40.72;;;8.82;;
52798;SDS011;38667;42.872;74.622;2023-05-10T00:54:46;40.55;;;8.10;;
52798;SDS011;38667;42.872;74.622;2023-05-10T00:57:12;32.65;;;8.18;;
52798;SDS011;38667;42.872;74.622;2023-05-10T00:59:39;33.25;;;8.32;;
52798;SDS011;38667;42.872;74.622;2023-05-10T01:02:05;52.25;;;9.65;;
52798;SDS011;38667;42.872;74.622;2023-05-10T01:04:34;45.75;;;7.90;;
52798;SDS011;38667;42.872;74.622;2023-05-10T01:07:00;36.05;;;7.85;;
52798;SDS011;38667;42.872;74.622;2023-05-10T01:09:27;28.83;;;7.40;;
52798;SDS011;38667;42.872;74.622;2023-05-10T01:11:53;24.55;;;7.05;;
52798;SDS011;38667;42.872;74.622;2023-05-10T01:14:20;30.02;;;7.47;;
52798;SDS011;38667;42.872;74.622;2023-05-10T01:16:48;31.33;;;7.43;;
52798;SDS011;38667;42.872;74.622;2023-05-10T01:19:17;69.68;;;9.65;;
52798;SDS011;38667;42.872;74.622;2023-05-10T01:21:50;70.03;;;10.13;;
52798;SDS011;38667;42.872;74.622;2023-05-10T01:24:41;89.32;;;11.52;;
52798;SDS011;38667;42.872;74.622;2023-05-10T01:27:32;47.80;;;8.18;;
52798;SDS011;38667;42.872;74.622;2023-05-10T01:30:35;26.85;;;6.30;;
52798;SDS011;38667;42.872;74.622;2023-05-10T01:33:23;20.95;;;6.20;;
52798;SDS011;38667;42.872;74.622;2023-05-10T01:35:56;23.15;;;6.50;;
52798;SDS011;38667;42.872;74.622;2023-05-10T01:38:29;13.45;;;5.43;;
52798;SDS011;38667;42.872;74.622;2023-05-10T01:41:05;21.92;;;6.28;;
52798;SDS011;38667;42.872;74.622;2023-05-10T01:43:39;16.75;;;5.13;;
52798;SDS011;38667;42.872;74.622;2023-05-10T01:46:14;16.58;;;5.40;;
52798;SDS011;38667;42.872;74.622;2023-05-10T01:48:47;19.67;;;5.40;;
52798;SDS011;38667;42.872;74.622;2023-05-10T01:51:17;14.20;;;4.68;;
52798;SDS011;38667;42.872;74.622;2023-05-10T01:53:48;20.13;;;5.35;;
52798;SDS011;38667;42.872;74.622;2023-05-10T01:56:16;10.43;;;5.00;;
52798;SDS011;38667;42.872;74.622;2023-05-10T01:58:47;19.75;;;5.50;;
52798;SDS011;38667;42.872;74.622;2023-05-10T02:01:15;16.70;;;6.45;;
52798;SDS011;38667;42.872;74.622;2023-05-10T02:03:41;21.23;;;7.25;;
52798;SDS011;38667;42.872;74.622;2023-05-10T02:06:10;30.98;;;9.25;;
52798;SDS011;38667;42.872;74.622;2023-05-10T02:08:39;24.73;;;8.35;;
52798;SDS011;38667;42.872;74.622;2023-05-10T02:11:06;26.20;;;7.85;;
52798;SDS011;38667;42.872;74.622;2023-05-10T02:13:34;27.08;;;7.80;;
52798;SDS011;38667;42.872;74.622;2023-05-10T02:16:02;27.10;;;7.60;;
52798;SDS011;38667;42.872;74.622;2023-05-10T02:18:30;17.95;;;6.30;;
52798;SDS011;38667;42.872;74.622;2023-05-10T02:20:58;20.00;;;5.95;;
52798;SDS011;38667;42.872;74.622;2023-05-10T02:23:28;20.08;;;5.07;;
52798;SDS011;38667;42.872;74.622;2023-05-10T02:25:56;18.83;;;4.85;;
52798;SDS011;38667;42.872;74.622;2023-05-10T02:28:25;30.15;;;4.82;;
52798;SDS011;38667;42.872;74.622;2023-05-10T02:30:52;15.65;;;4.53;;
52798;SDS011;38667;42.872;74.622;2023-05-10T02:33:19;16.00;;;4.20;;
52798;SDS011;38667;42.872;74.622;2023-05-10T02:35:47;14.75;;;4.22;;
52798;SDS011;38667;42.872;74.622;2023-05-10T02:38:15;16.60;;;4.05;;
52798;SDS011;38667;42.872;74.622;2023-05-10T02:40:45;16.52;;;4.22;;
52798;SDS011;38667;42.872;74.622;2023-05-10T02:43:13;19.10;;;4.40;;
52798;SDS011;38667;42.872;74.622;2023-05-10T02:45:41;14.85;;;4.65;;
52798;SDS011;38667;42.872;74.622;2023-05-10T02:48:08;15.75;;;3.65;;
52798;SDS011;38667;42.872;74.622;2023-05-10T02:50:35;13.77;;;4.00;;
52798;SDS011;38667;42.872;74.622;2023-05-10T02:53:06;17.45;;;3.40;;
52798;SDS011;38667;42.872;74.622;2023-05-10T02:55:37;13.68;;;3.97;;
52798;SDS011;38667;42.872;74.622;2023-05-10T02:58:07;17.17;;;4.10;;
52798;SDS011;38667;42.872;74.622;2023-05-10T03:00:33;14.13;;;3.50;;
52798;SDS011;38667;42.872;74.622;2023-05-10T03:02:59;17.15;;;3.63;;
52798;SDS011;38667;42.872;74.622;2023-05-10T03:05:26;18.73;;;4.20;;
52798;SDS011;38667;42.872;74.622;2023-05-10T03:07:52;16.90;;;4.03;;
52798;SDS011;38667;42.872;74.622;2023-05-10T03:10:19;22.98;;;4.95;;
52798;SDS011;38667;42.872;74.622;2023-05-10T03:13:01;21.55;;;4.45;;
52798;SDS011;38667;42.872;74.622;2023-05-10T03:15:41;19.83;;;3.80;;
52798;SDS011;38667;42.872;74.622;2023-05-10T03:18:14;15.77;;;3.92;;
52798;SDS011;38667;42.872;74.622;2023-05-10T03:20:46;17.55;;;3.67;;
52798;SDS011;38667;42.872;74.622;2023-05-10T03:23:16;23.33;;;3.88;;
52798;SDS011;38667;42.872;74.622;2023-05-10T03:25:48;24.60;;;4.30;;
52798;SDS011;38667;42.872;74.622;2023-05-10T03:28:17;16.27;;;4.20;;
52798;SDS011;38667;42.872;74.622;2023-05-10T03:30:43;15.90;;;4.78;;
52798;SDS011;38667;42.872;74.622;2023-05-10T03:33:11;17.73;;;3.78;;
52798;SDS011;38667;42.872;74.622;2023-05-10T03:35:37;13.30;;;4.22;;
52798;SDS011;38667;42.872;74.622;2023-05-10T03:38:04;17.13;;;4.03;;
52798;SDS011;38667;42.872;74.622;2023-05-10T03:40:30;14.32;;;3.38;;
52798;SDS011;38667;42.872;74.622;2023-05-10T03:42:56;22.65;;;3.80;;
52798;SDS011;38667;42.872;74.622;2023-05-10T03:45:24;22.48;;;4.20;;
52798;SDS011;38667;42.872;74.622;2023-05-10T03:47:51;13.77;;;3.47;;
52798;SDS011;38667;42.872;74.622;2023-05-10T03:50:17;15.70;;;4.40;;
52798;SDS011;38667;42.872;74.622;2023-05-10T03:52:43;16.02;;;3.92;;
52798;SDS011;38667;42.872;74.622;2023-05-10T03:55:10;10.75;;;2.95;;
52798;SDS011;38667;42.872;74.622;2023-05-10T03:57:36;20.20;;;4.43;;
52798;SDS011;38667;42.872;74.622;2023-05-10T04:00:03;13.45;;;3.90;;
52798;SDS011;38667;42.872;74.622;2023-05-10T04:02:31;15.90;;;3.90;;
52798;SDS011;38667;42.872;74.622;2023-05-10T04:04:57;23.25;;;4.30;;
52798;SDS011;38667;42.872;74.622;2023-05-10T04:07:24;17.90;;;4.45;;
52798;SDS011;38667;42.872;74.622;2023-05-10T04:09:50;13.30;;;3.67;;
52798;SDS011;38667;42.872;74.622;2023-05-10T04:12:16;16.90;;;3.95;;
52798;SDS011;38667;42.872;74.622;2023-05-10T04:14:43;15.02;;;3.63;;
52798;SDS011;38667;42.872;74.622;2023-05-10T04:17:09;17.00;;;4.10;;
52798;SDS011;38667;42.872;74.622;2023-05-10T04:19:37;18.33;;;4.10;;
52798;SDS011;38667;42.872;74.622;2023-05-10T04:22:03;15.38;;;3.63;;
52798;SDS011;38667;42.872;74.622;2023-05-10T04:24:29;16.88;;;4.07;;
52798;SDS011;38667;42.872;74.622;2023-05-10T04:26:56;22.40;;;4.03;;
52798;SDS011;38667;42.872;74.622;2023-05-10T04:29:22;19.92;;;3.70;;
52798;SDS011;38667;42.872;74.622;2023-05-10T04:31:48;9.90;;;2.97;;
52798;SDS011;38667;42.872;74.622;2023-05-10T04:34:15;18.58;;;3.95;;
52798;SDS011;38667;42.872;74.622;2023-05-10T04:36:43;11.27;;;3.47;;
52798;SDS011;38667;42.872;74.622;2023-05-10T04:39:09;10.65;;;3.63;;
52798;SDS011;38667;42.872;74.622;2023-05-10T04:41:35;12.32;;;3.58;;
52798;SDS011;38667;42.872;74.622;2023-05-10T04:44:03;14.48;;;3.25;;
52798;SDS011;38667;42.872;74.622;2023-05-10T04:46:30;16.88;;;3.40;;
52798;SDS011;38667;42.872;74.622;2023-05-10T04:48:56;18.70;;;3.75;;
52798;SDS011;38667;42.872;74.622;2023-05-10T04:51:22;10.13;;;3.17;;
52798;SDS011;38667;42.872;74.622;2023-05-10T04:53:50;10.55;;;3.00;;
52798;SDS011;38667;42.872;74.622;2023-05-10T04:56:16;16.20;;;3.42;;
52798;SDS011;38667;42.872;74.622;2023-05-10T04:58:43;21.50;;;3.80;;
52798;SDS011;38667;42.872;74.622;2023-05-10T05:01:09;18.92;;;3.90;;
52798;SDS011;38667;42.872;74.622;2023-05-10T05:03:35;16.80;;;3.03;;
52798;SDS011;38667;42.872;74.622;2023-05-10T05:06:02;15.88;;;3.70;;
52798;SDS011;38667;42.872;74.622;2023-05-10T05:08:28;16.90;;;3.90;;
52798;SDS011;38667;42.872;74.622;2023-05-10T05:10:56;21.00;;;3.92;;
52798;SDS011;38667;42.872;74.622;2023-05-10T05:13:23;18.73;;;3.88;;
52798;SDS011;38667;42.872;74.622;2023-05-10T05:15:49;20.75;;;4.55;;
52798;SDS011;38667;42.872;74.622;2023-05-10T05:18:15;29.17;;;5.53;;
52798;SDS011;38667;42.872;74.622;2023-05-10T05:20:42;32.20;;;5.82;;
52798;SDS011;38667;42.872;74.622;2023-05-10T05:23:08;22.92;;;4.90;;
52798;SDS011;38667;42.872;74.622;2023-05-10T05:25:34;18.38;;;4.40;;
52798;SDS011;38667;42.872;74.622;2023-05-10T05:28:02;22.40;;;5.28;;
52798;SDS011;38667;42.872;74.622;2023-05-10T05:30:29;12.80;;;3.50;;
52798;SDS011;38667;42.872;74.622;2023-05-10T05:32:55;17.65;;;3.97;;
52798;SDS011;38667;42.872;74.622;2023-05-10T05:35:21;27.40;;;5.32;;
52798;SDS011;38667;42.872;74.622;2023-05-10T05:37:47;14.10;;;4.15;;
52798;SDS011;38667;42.872;74.622;2023-05-10T05:40:14;16.95;;;3.78;;
52798;SDS011;38667;42.872;74.622;2023-05-10T05:42:40;18.02;;;4.00;;
52798;SDS011;38667;42.872;74.622;2023-05-10T05:45:08;23.23;;;4.30;;
52798;SDS011;38667;42.872;74.622;2023-05-10T05:47:35;15.00;;;3.90;;
52798;SDS011;38667;42.872;74.622;2023-05-10T05:50:01;20.33;;;4.40;;
52798;SDS011;38667;42.872;74.622;2023-05-10T05:52:28;22.75;;;4.10;;
52798;SDS011;38667;42.872;74.622;2023-05-10T05:54:55;15.07;;;3.85;;
52798;SDS011;38667;42.872;74.622;2023-05-10T05:57:21;25.27;;;3.92;;
52798;SDS011;38667;42.872;74.622;2023-05-10T05:59:47;24.20;;;4.80;;
52798;SDS011;38667;42.872;74.622;2023-05-10T06:02:15;12.77;;;3.80;;
52798;SDS011;38667;42.872;74.622;2023-05-10T06:04:42;16.73;;;3.97;;
52798;SDS011;38667;42.872;74.622;2023-05-10T06:07:08;22.45;;;4.15;;
52798;SDS011;38667;42.872;74.622;2023-05-10T06:09:34;19.67;;;4.13;;
52798;SDS011;38667;42.872;74.622;2023-05-10T06:12:01;17.63;;;4.53;;
52798;SDS011;38667;42.872;74.622;2023-05-10T06:14:27;21.45;;;4.40;;
52798;SDS011;38667;42.872;74.622;2023-05-10T06:16:53;22.83;;;5.15;;
52798;SDS011;38667;42.872;74.622;2023-05-10T06:19:21;19.30;;;4.63;;
52798;SDS011;38667;42.872;74.622;2023-05-10T06:21:47;21.90;;;3.75;;
52798;SDS011;38667;42.872;74.622;2023-05-10T06:24:14;14.10;;;3.97;;
52798;SDS011;38667;42.872;74.622;2023-05-10T06:26:40;15.43;;;3.97;;
52798;SDS011;38667;42.872;74.622;2023-05-10T06:29:06;21.88;;;4.88;;
52798;SDS011;38667;42.872;74.622;2023-05-10T06:31:33;15.63;;;4.70;;
52798;SDS011;38667;42.872;74.622;2023-05-10T06:33:59;23.80;;;4.55;;
52798;SDS011;38667;42.872;74.622;2023-05-10T06:36:27;18.35;;;4.07;;
52798;SDS011;38667;42.872;74.622;2023-05-10T06:38:53;22.52;;;4.45;;
52798;SDS011;38667;42.872;74.622;2023-05-10T06:41:20;18.38;;;3.97;;
52798;SDS011;38667;42.872;74.622;2023-05-10T06:43:46;14.65;;;3.88;;
52798;SDS011;38667;42.872;74.622;2023-05-10T06:46:12;23.65;;;4.30;;
52798;SDS011;38667;42.872;74.622;2023-05-10T06:48:38;27.42;;;6.32;;
52798;SDS011;38667;42.872;74.622;2023-05-10T06:51:05;25.92;;;5.20;;
52798;SDS011;38667;42.872;74.622;2023-05-10T06:53:33;20.13;;;5.03;;
52798;SDS011;38667;42.872;74.622;2023-05-10T06:55:59;15.80;;;3.72;;
52798;SDS011;38667;42.872;74.622;2023-05-10T06:58:25;17.05;;;4.15;;
52798;SDS011;38667;42.872;74.622;2023-05-10T07:00:52;27.30;;;4.75;;
52798;SDS011;38667;42.872;74.622;2023-05-10T07:03:18;19.05;;;4.18;;
52798;SDS011;38667;42.872;74.622;2023-05-10T07:05:44;22.38;;;4.82;;
52798;SDS011;38667;42.872;74.622;2023-05-10T07:08:10;19.10;;;4.70;;
52798;SDS011;38667;42.872;74.622;2023-05-10T07:10:38;23.05;;;4.20;;
52798;SDS011;38667;42.872;74.622;2023-05-10T07:13:05;18.75;;;4.65;;
52798;SDS011;38667;42.872;74.622;2023-05-10T07:15:31;19.23;;;4.40;;
52798;SDS011;38667;42.872;74.622;2023-05-10T07:17:57;16.15;;;4.15;;
52798;SDS011;38667;42.872;74.622;2023-05-10T07:20:24;12.45;;;4.22;;
52798;SDS011;38667;42.872;74.622;2023-05-10T07:22:50;19.42;;;3.95;;
52798;SDS011;38667;42.872;74.622;2023-05-10T07:25:16;25.33;;;5.10;;
52798;SDS011;38667;42.872;74.622;2023-05-10T07:27:44;19.45;;;4.05;;
52798;SDS011;38667;42.872;74.622;2023-05-10T07:30:11;27.05;;;4.45;;
52798;SDS011;38667;42.872;74.622;2023-05-10T07:32:38;24.30;;;5.00;;
52798;SDS011;38667;42.872;74.622;2023-05-10T07:35:05;17.95;;;4.80;;
52798;SDS011;38667;42.872;74.622;2023-05-10T07:37:31;21.48;;;5.13;;
52798;SDS011;38667;42.872;74.622;2023-05-10T07:39:57;18.75;;;5.80;;
52798;SDS011;38667;42.872;74.622;2023-05-10T07:42:24;10.45;;;5.43;;
52798;SDS011;38667;42.872;74.622;2023-05-10T07:44:52;13.25;;;4.80;;
52798;SDS011;38667;42.872;74.622;2023-05-10T07:47:18;16.58;;;5.20;;
52798;SDS011;38667;42.872;74.622;2023-05-10T07:49:44;15.98;;;5.47;;
52798;SDS011;38667;42.872;74.622;2023-05-10T07:52:10;16.00;;;5.82;;
52798;SDS011;38667;42.872;74.622;2023-05-10T07:54:37;20.27;;;5.35;;
52798;SDS011;38667;42.872;74.622;2023-05-10T07:57:03;18.33;;;4.90;;
52798;SDS011;38667;42.872;74.622;2023-05-10T07:59:29;11.02;;;4.97;;
52798;SDS011;38667;42.872;74.622;2023-05-10T08:01:57;13.05;;;4.97;;
52798;SDS011;38667;42.872;74.622;2023-05-10T08:04:24;17.65;;;5.22;;
52798;SDS011;38667;42.872;74.622;2023-05-10T08:06:50;13.07;;;4.97;;
52798;SDS011;38667;42.872;74.622;2023-05-10T08:09:16;17.45;;;4.85;;
52798;SDS011;38667;42.872;74.622;2023-05-10T08:11:43;19.05;;;4.18;;
52798;SDS011;38667;42.872;74.622;2023-05-10T08:14:09;20.67;;;4.20;;
52798;SDS011;38667;42.872;74.622;2023-05-10T08:16:35;18.20;;;7.00;;
52798;SDS011;38667;42.872;74.622;2023-05-10T08:19:03;23.23;;;8.98;;
52798;SDS011;38667;42.872;74.622;2023-05-10T08:21:29;22.83;;;8.82;;
52798;SDS011;38667;42.872;74.622;2023-05-10T08:23:56;20.73;;;4.63;;
52798;SDS011;38667;42.872;74.622;2023-05-10T08:26:22;19.85;;;4.97;;
52798;SDS011;38667;42.872;74.622;2023-05-10T08:28:48;32.72;;;14.90;;
52798;SDS011;38667;42.872;74.622;2023-05-10T08:31:14;44.00;;;22.05;;
52798;SDS011;38667;42.872;74.622;2023-05-10T08:33:41;39.35;;;18.98;;
52798;SDS011;38667;42.872;74.622;2023-05-10T08:36:09;26.08;;;11.48;;
52798;SDS011;38667;42.872;74.622;2023-05-10T08:38:36;31.35;;;6.00;;
52798;SDS011;38667;42.872;74.622;2023-05-10T08:41:03;28.40;;;9.20;;
52798;SDS011;38667;42.872;74.622;2023-05-10T08:43:30;27.45;;;12.18;;
52798;SDS011;38667;42.872;74.622;2023-05-10T08:45:58;27.58;;;9.30;;
52798;SDS011;38667;42.872;74.622;2023-05-10T08:48:26;27.92;;;9.02;;
52798;SDS011;38667;42.872;74.622;2023-05-10T08:50:54;26.50;;;6.60;;
52798;SDS011;38667;42.872;74.622;2023-05-10T08:53:25;21.67;;;6.88;;
52798;SDS011;38667;42.872;74.622;2023-05-10T08:55:54;20.10;;;5.72;;
52798;SDS011;38667;42.872;74.622;2023-05-10T08:58:21;19.13;;;5.78;;
52798;SDS011;38667;42.872;74.622;2023-05-10T09:00:48;26.92;;;5.50;;
52798;SDS011;38667;42.872;74.622;2023-05-10T09:03:15;15.90;;;4.05;;
52798;SDS011;38667;42.872;74.622;2023-05-10T09:05:41;19.52;;;4.25;;
52798;SDS011;38667;42.872;74.622;2023-05-10T09:08:08;16.52;;;4.80;;
52798;SDS011;38667;42.872;74.622;2023-05-10T09:10:36;13.32;;;4.70;;
52798;SDS011;38667;42.872;74.622;2023-05-10T09:13:03;22.23;;;4.90;;
52798;SDS011;38667;42.872;74.622;2023-05-10T09:15:30;20.45;;;4.78;;
52798;SDS011;38667;42.872;74.622;2023-05-10T09:17:56;18.73;;;4.22;;
52798;SDS011;38667;42.872;74.622;2023-05-10T09:20:23;23.77;;;5.22;;
52798;SDS011;38667;42.872;74.622;2023-05-10T09:22:49;16.77;;;3.92;;
52798;SDS011;38667;42.872;74.622;2023-05-10T09:25:16;19.80;;;4.70;;
52798;SDS011;38667;42.872;74.622;2023-05-10T09:27:45;16.00;;;3.80;;
52798;SDS011;38667;42.872;74.622;2023-05-10T09:30:15;15.93;;;4.10;;
52798;SDS011;38667;42.872;74.622;2023-05-10T09:32:42;20.50;;;4.50;;
52798;SDS011;38667;42.872;74.622;2023-05-10T09:35:10;24.42;;;5.70;;
52798;SDS011;38667;42.872;74.622;2023-05-10T09:37:37;13.43;;;5.30;;
52798;SDS011;38667;42.872;74.622;2023-05-10T09:40:05;20.65;;;4.53;;
52798;SDS011;38667;42.872;74.622;2023-05-10T09:42:33;15.75;;;4.78;;
52798;SDS011;38667;42.872;74.622;2023-05-10T09:45:02;13.48;;;5.47;;
52798;SDS011;38667;42.872;74.622;2023-05-10T09:47:29;18.05;;;6.05;;
52798;SDS011;38667;42.872;74.622;2023-05-10T09:49:57;18.75;;;6.00;;
52798;SDS011;38667;42.872;74.622;2023-05-10T09:52:23;17.20;;;6.40;;
52798;SDS011;38667;42.872;74.622;2023-05-10T09:54:52;18.80;;;5.40;;
52798;SDS011;38667;42.872;74.622;2023-05-10T09:57:20;15.48;;;5.63;;
52798;SDS011;38667;42.872;74.622;2023-05-10T09:59:47;21.83;;;6.20;;
52798;SDS011;38667;42.872;74.622;2023-05-10T10:02:15;18.75;;;5.90;;
52798;SDS011;38667;42.872;74.622;2023-05-10T10:04:41;18.88;;;6.10;;
52798;SDS011;38667;42.872;74.622;2023-05-10T10:07:08;21.35;;;7.15;;
52798;SDS011;38667;42.872;74.622;2023-05-10T10:09:34;19.48;;;6.65;;
52798;SDS011;38667;42.872;74.622;2023-05-10T10:12:01;18.23;;;8.68;;
52798;SDS011;38667;42.872;74.622;2023-05-10T10:14:28;18.40;;;8.35;;
52798;SDS011;38667;42.872;74.622;2023-05-10T10:16:55;22.08;;;10.13;;
52798;SDS011;38667;42.872;74.622;2023-05-10T10:19:23;17.27;;;8.55;;
52798;SDS011;38667;42.872;74.622;2023-05-10T10:21:49;24.40;;;10.35;;
52798;SDS011;38667;42.872;74.622;2023-05-10T10:24:16;28.27;;;12.68;;
52798;SDS011;38667;42.872;74.622;2023-05-10T10:26:42;24.02;;;12.48;;
52798;SDS011;38667;42.872;74.622;2023-05-10T10:29:12;23.63;;;13.13;;
52798;SDS011;38667;42.872;74.622;2023-05-10T10:31:47;27.83;;;12.77;;
52798;SDS011;38667;42.872;74.622;2023-05-10T10:34:25;21.15;;;12.18;;
52798;SDS011;38667;42.872;74.622;2023-05-10T10:36:52;24.60;;;11.25;;
52798;SDS011;38667;42.872;74.622;2023-05-10T10:39:19;19.13;;;9.20;;
52798;SDS011;38667;42.872;74.622;2023-05-10T10:41:49;22.40;;;9.27;;
52798;SDS011;38667;42.872;74.622;2023-05-10T10:44:30;20.02;;;9.63;;
52798;SDS011;38667;42.872;74.622;2023-05-10T10:47:04;16.67;;;8.90;;
52798;SDS011;38667;42.872;74.622;2023-05-10T10:49:37;20.55;;;7.75;;
52798;SDS011;38667;42.872;74.622;2023-05-10T10:52:14;18.83;;;7.40;;
52798;SDS011;38667;42.872;74.622;2023-05-10T10:54:58;21.63;;;7.22;;
52798;SDS011;38667;42.872;74.622;2023-05-10T10:57:25;16.35;;;7.07;;
52798;SDS011;38667;42.872;74.622;2023-05-10T10:59:53;22.38;;;6.55;;
52798;SDS011;38667;42.872;74.622;2023-05-10T11:03:00;24.00;;;6.20;;
52798;SDS011;38667;42.872;74.622;2023-05-10T11:05:40;23.20;;;5.95;;
52798;SDS011;38667;42.872;74.622;2023-05-10T11:08:11;21.77;;;6.18;;
52798;SDS011;38667;42.872;74.622;2023-05-10T11:10:39;15.48;;;5.72;;
52798;SDS011;38667;42.872;74.622;2023-05-10T11:13:14;15.60;;;5.00;;
52798;SDS011;38667;42.872;74.622;2023-05-10T11:15:40;15.18;;;5.13;;
52798;SDS011;38667;42.872;74.622;2023-05-10T11:18:17;14.00;;;4.85;;
52798;SDS011;38667;42.872;74.622;2023-05-10T11:20:46;16.08;;;4.72;;
52798;SDS011;38667;42.872;74.622;2023-05-10T11:23:16;21.35;;;5.10;;
52798;SDS011;38667;42.872;74.622;2023-05-10T11:25:42;12.52;;;4.45;;
52798;SDS011;38667;42.872;74.622;2023-05-10T11:28:09;16.15;;;5.05;;
52798;SDS011;38667;42.872;74.622;2023-05-10T11:30:36;11.05;;;4.38;;
52798;SDS011;38667;42.872;74.622;2023-05-10T11:33:04;16.38;;;5.05;;
52798;SDS011;38667;42.872;74.622;2023-05-10T11:35:31;20.05;;;5.90;;
52798;SDS011;38667;42.872;74.622;2023-05-10T11:38:04;17.58;;;5.75;;
52798;SDS011;38667;42.872;74.622;2023-05-10T11:40:31;14.95;;;5.53;;
52798;SDS011;38667;42.872;74.622;2023-05-10T11:42:58;15.55;;;5.38;;
52798;SDS011;38667;42.872;74.622;2023-05-10T11:45:24;15.70;;;6.30;;
52798;SDS011;38667;42.872;74.622;2023-05-10T11:47:51;16.00;;;5.90;;
52798;SDS011;38667;42.872;74.622;2023-05-10T11:50:17;19.27;;;5.10;;
52798;SDS011;38667;42.872;74.622;2023-05-10T11:52:44;16.65;;;5.75;;
52798;SDS011;38667;42.872;74.622;2023-05-10T11:55:12;16.80;;;5.80;;
52798;SDS011;38667;42.872;74.622;2023-05-10T11:57:38;16.08;;;5.93;;
52798;SDS011;38667;42.872;74.622;2023-05-10T12:00:05;15.75;;;5.57;;
52798;SDS011;38667;42.872;74.622;2023-05-10T12:02:32;13.05;;;5.53;;
52798;SDS011;38667;42.872;74.622;2023-05-10T12:04:58;14.10;;;6.15;;
52798;SDS011;38667;42.872;74.622;2023-05-10T12:07:25;15.63;;;6.32;;
52798;SDS011;38667;42.872;74.622;2023-05-10T12:10:07;17.23;;;6.32;;
52798;SDS011;38667;42.872;74.622;2023-05-10T12:12:37;14.40;;;5.40;;
52798;SDS011;38667;42.872;74.622;2023-05-10T12:15:04;15.77;;;5.30;;
52798;SDS011;38667;42.872;74.622;2023-05-10T12:17:36;12.70;;;4.25;;
52798;SDS011;38667;42.872;74.622;2023-05-10T12:20:13;21.23;;;5.20;;
52798;SDS011;38667;42.872;74.622;2023-05-10T12:22:40;17.85;;;5.25;;
52798;SDS011;38667;42.872;74.622;2023-05-10T12:25:09;16.83;;;4.50;;
52798;SDS011;38667;42.872;74.622;2023-05-10T12:27:37;11.18;;;3.92;;
52798;SDS011;38667;42.872;74.622;2023-05-10T12:30:03;16.30;;;4.57;;
52798;SDS011;38667;42.872;74.622;2023-05-10T12:32:37;18.20;;;4.40;;
52798;SDS011;38667;42.872;74.622;2023-05-10T12:35:04;12.52;;;4.28;;
52798;SDS011;38667;42.872;74.622;2023-05-10T12:37:31;13.32;;;4.60;;
52798;SDS011;38667;42.872;74.622;2023-05-10T12:39:57;16.10;;;5.30;;
52798;SDS011;38667;42.872;74.622;2023-05-10T12:42:24;25.70;;;4.82;;
52798;SDS011;38667;42.872;74.622;2023-05-10T12:44:55;22.00;;;4.90;;
52798;SDS011;38667;42.872;74.622;2023-05-10T12:47:22;17.90;;;4.82;;
52798;SDS011;38667;42.872;74.622;2023-05-10T12:49:48;16.33;;;4.15;;
52798;SDS011;38667;42.872;74.622;2023-05-10T12:52:14;17.98;;;4.68;;
52798;SDS011;38667;42.872;74.622;2023-05-10T12:54:41;14.80;;;5.22;;
52798;SDS011;38667;42.872;74.622;2023-05-10T12:57:07;19.30;;;6.05;;
52798;SDS011;38667;42.872;74.622;2023-05-10T12:59:33;21.27;;;6.28;;
52798;SDS011;38667;42.872;74.622;2023-05-10T13:02:01;12.23;;;5.40;;
52798;SDS011;38667;42.872;74.622;2023-05-10T13:04:28;15.90;;;5.55;;
52798;SDS011;38667;42.872;74.622;2023-05-10T13:06:54;15.25;;;5.25;;
52798;SDS011;38667;42.872;74.622;2023-05-10T13:09:20;20.20;;;5.38;;
52798;SDS011;38667;42.872;74.622;2023-05-10T13:11:47;12.88;;;5.53;;
52798;SDS011;38667;42.872;74.622;2023-05-10T13:14:14;18.13;;;5.25;;
52798;SDS011;38667;42.872;74.622;2023-05-10T13:16:40;15.88;;;5.68;;
52798;SDS011;38667;42.872;74.622;2023-05-10T13:19:08;16.48;;;5.40;;
52798;SDS011;38667;42.872;74.622;2023-05-10T13:21:34;13.02;;;4.50;;
52798;SDS011;38667;42.872;74.622;2023-05-10T13:24:00;24.85;;;5.95;;
52798;SDS011;38667;42.872;74.622;2023-05-10T13:26:27;13.70;;;5.20;;
52798;SDS011;38667;42.872;74.622;2023-05-10T13:28:53;18.23;;;5.70;;
52798;SDS011;38667;42.872;74.622;2023-05-10T13:31:19;36.25;;;6.82;;
52798;SDS011;38667;42.872;74.622;2023-05-10T13:33:46;17.58;;;5.88;;
52798;SDS011;38667;42.872;74.622;2023-05-10T13:36:14;19.52;;;5.63;;
52798;SDS011;38667;42.872;74.622;2023-05-10T13:38:40;25.10;;;6.03;;
52798;SDS011;38667;42.872;74.622;2023-05-10T13:41:06;15.45;;;5.13;;
52798;SDS011;38667;42.872;74.622;2023-05-10T13:43:33;15.70;;;5.45;;
52798;SDS011;38667;42.872;74.622;2023-05-10T13:45:59;19.85;;;5.88;;
52798;SDS011;38667;42.872;74.622;2023-05-10T13:48:26;19.35;;;6.35;;
52798;SDS011;38667;42.872;74.622;2023-05-10T13:50:52;18.15;;;4.95;;
52798;SDS011;38667;42.872;74.622;2023-05-10T13:53:20;20.80;;;6.18;;
52798;SDS011;38667;42.872;74.622;2023-05-10T13:55:46;12.63;;;5.13;;
52798;SDS011;38667;42.872;74.622;2023-05-10T13:58:13;19.50;;;5.93;;
52798;SDS011;38667;42.872;74.622;2023-05-10T14:00:39;18.80;;;5.70;;
52798;SDS011;38667;42.872;74.622;2023-05-10T14:03:05;21.15;;;6.32;;
52798;SDS011;38667;42.872;74.622;2023-05-10T14:05:32;25.38;;;7.05;;
52798;SDS011;38667;42.872;74.622;2023-05-10T14:07:58;20.98;;;6.40;;
52798;SDS011;38667;42.872;74.622;2023-05-10T14:10:26;25.90;;;6.55;;
52798;SDS011;38667;42.872;74.622;2023-05-10T14:12:52;25.95;;;7.82;;
52798;SDS011;38667;42.872;74.622;2023-05-10T14:15:19;29.90;;;8.38;;
52798;SDS011;38667;42.872;74.622;2023-05-10T14:17:45;22.67;;;8.32;;
52798;SDS011;38667;42.872;74.622;2023-05-10T14:20:12;23.20;;;7.63;;
52798;SDS011;38667;42.872;74.622;2023-05-10T14:22:38;19.25;;;6.75;;
52798;SDS011;38667;42.872;74.622;2023-05-10T14:25:04;19.10;;;7.43;;